createdAt,value
2017-03-08T00:00:39.889Z,1013.09
2017-03-08T00:01:20.530Z,1013.09
2017-03-08T00:02:02.116Z,1013.04
2017-03-08T00:02:42.762Z,1013.04
2017-03-08T00:03:23.413Z,1013.02
2017-03-08T00:04:04.065Z,1012.99
2017-03-08T00:04:44.717Z,1013
2017-03-08T00:05:25.371Z,1013.01
2017-03-08T00:06:06.126Z,1013.02
2017-03-08T00:06:46.680Z,1013.02
2017-03-08T00:07:27.329Z,1013.02
2017-03-08T00:08:07.982Z,1013
2017-03-08T00:08:48.632Z,1012.99
2017-03-08T00:09:29.184Z,1013.01
2017-03-08T00:10:09.843Z,1012.97
2017-03-08T00:10:50.389Z,1012.97
2017-03-08T00:11:30.997Z,1012.94
2017-03-08T00:12:11.595Z,1012.95
2017-03-08T00:12:52.243Z,1012.95
2017-03-08T00:13:32.779Z,1013
2017-03-08T00:14:13.404Z,1013
2017-03-08T00:14:53.985Z,1013.04
2017-03-08T00:15:34.649Z,1013.09
2017-03-08T00:16:15.203Z,1013.09
2017-03-08T00:16:55.792Z,1013.09
2017-03-08T00:17:36.362Z,1013.12
2017-03-08T00:18:16.999Z,1013.11
2017-03-08T00:18:57.646Z,1013.13
2017-03-08T00:19:38.316Z,1013.14
2017-03-08T00:20:19.025Z,1013.09
2017-03-08T00:20:59.674Z,1013.15
2017-03-08T00:21:40.329Z,1013.08
2017-03-08T00:22:20.991Z,1013.08
2017-03-08T00:23:01.634Z,1013.08
2017-03-08T00:23:42.290Z,1013.04
2017-03-08T00:24:22.941Z,1013.07
2017-03-08T00:25:03.493Z,1013.07
2017-03-08T00:25:44.044Z,1013.03
2017-03-08T00:26:24.606Z,1013.06
2017-03-08T00:27:05.178Z,1013.03
2017-03-08T00:27:45.803Z,1013.02
2017-03-08T00:28:26.459Z,1013.07
2017-03-08T00:29:07.107Z,1013.05
2017-03-08T00:29:47.664Z,1013.1
2017-03-08T00:30:28.311Z,1013.09
2017-03-08T00:31:08.880Z,1013.11
2017-03-08T00:31:49.446Z,1013.17
2017-03-08T00:32:30.055Z,1013.18
2017-03-08T00:33:10.711Z,1013.21
2017-03-08T00:33:51.257Z,1013.2
2017-03-08T00:34:31.877Z,1013.22
2017-03-08T00:35:12.441Z,1013.21
2017-03-08T00:35:53.120Z,1013.17
2017-03-08T00:36:33.669Z,1013.21
2017-03-08T00:37:14.327Z,1013.2
2017-03-08T00:37:54.973Z,1013.22
2017-03-08T00:38:35.629Z,1013.25
2017-03-08T00:39:16.279Z,1013.26
2017-03-08T00:39:56.861Z,1013.24
2017-03-08T00:40:37.467Z,1013.26
2017-03-08T00:41:18.033Z,1013.29
2017-03-08T00:41:58.594Z,1013.28
2017-03-08T00:42:39.228Z,1013.3
2017-03-08T00:43:19.787Z,1013.3
2017-03-08T00:44:00.378Z,1013.33
2017-03-08T00:44:40.990Z,1013.33
2017-03-08T00:45:21.640Z,1013.35
2017-03-08T00:46:03.218Z,1013.38
2017-03-08T00:46:43.868Z,1013.38
2017-03-08T00:47:24.530Z,1013.41
2017-03-08T00:48:05.176Z,1013.39
2017-03-08T00:48:45.832Z,1013.44
2017-03-08T00:49:26.482Z,1013.4
2017-03-08T00:50:07.139Z,1013.41
2017-03-08T00:50:48.814Z,1013.47
2017-03-08T00:51:29.467Z,1013.43
2017-03-08T00:52:10.123Z,1013.44
2017-03-08T00:52:50.768Z,1013.49
2017-03-08T00:53:31.425Z,1013.45
2017-03-08T00:54:12.075Z,1013.5
2017-03-08T00:54:52.732Z,1013.49
2017-03-08T00:55:33.384Z,1013.52
2017-03-08T00:56:13.934Z,1013.52
2017-03-08T00:56:54.528Z,1013.5
2017-03-08T00:57:35.140Z,1013.49
2017-03-08T00:58:15.807Z,1013.57
2017-03-08T00:58:56.445Z,1013.53
2017-03-08T00:59:36.990Z,1013.49
2017-03-08T01:00:17.604Z,1013.48
2017-03-08T01:00:58.181Z,1013.45
2017-03-08T01:01:38.749Z,1013.39
2017-03-08T01:02:19.289Z,1013.42
2017-03-08T01:02:59.905Z,1013.37
2017-03-08T01:03:40.501Z,1013.4
2017-03-08T01:04:21.164Z,1013.46
2017-03-08T01:05:01.726Z,1013.45
2017-03-08T01:05:42.314Z,1013.46
2017-03-08T01:06:22.950Z,1013.47
2017-03-08T01:07:03.667Z,1013.5
2017-03-08T01:07:44.302Z,1013.46
2017-03-08T01:08:24.971Z,1013.46
2017-03-08T01:09:05.638Z,1013.55
2017-03-08T01:09:46.273Z,1013.51
2017-03-08T01:10:26.941Z,1013.5
2017-03-08T01:11:07.587Z,1013.47
2017-03-08T01:11:48.235Z,1013.46
2017-03-08T01:12:28.890Z,1013.47
2017-03-08T01:13:09.551Z,1013.45
2017-03-08T01:13:50.200Z,1013.46
2017-03-08T01:14:30.851Z,1013.42
2017-03-08T01:15:11.379Z,1013.51
2017-03-08T01:15:51.943Z,1013.44
2017-03-08T01:16:32.609Z,1013.44
2017-03-08T01:17:13.156Z,1013.46
2017-03-08T01:17:53.812Z,1013.46
2017-03-08T01:18:34.460Z,1013.48
2017-03-08T01:19:15.009Z,1013.46
2017-03-08T01:19:55.680Z,1013.47
2017-03-08T01:20:36.321Z,1013.46
2017-03-08T01:21:16.964Z,1013.44
2017-03-08T01:21:57.560Z,1013.45
2017-03-08T01:22:38.165Z,1013.4
2017-03-08T01:23:18.831Z,1013.43
2017-03-08T01:24:00.384Z,1013.38
2017-03-08T01:24:41.052Z,1013.41
2017-03-08T01:25:21.608Z,1013.42
2017-03-08T01:26:02.255Z,1013.41
2017-03-08T01:26:42.832Z,1013.43
2017-03-08T01:27:23.408Z,1013.43
2017-03-08T01:28:04.011Z,1013.41
2017-03-08T01:28:44.667Z,1013.48
2017-03-08T01:29:25.212Z,1013.51
2017-03-08T01:30:05.806Z,1013.54
2017-03-08T01:30:46.454Z,1013.52
2017-03-08T01:31:27.072Z,1013.58
2017-03-08T01:32:07.601Z,1013.6
2017-03-08T01:32:48.237Z,1013.61
2017-03-08T01:33:28.803Z,1013.6
2017-03-08T01:34:09.379Z,1013.56
2017-03-08T01:34:49.959Z,1013.55
2017-03-08T01:35:30.550Z,1013.5
2017-03-08T01:36:11.179Z,1013.5
2017-03-08T01:36:51.848Z,1013.46
2017-03-08T01:37:32.467Z,1013.47
2017-03-08T01:38:14.061Z,1013.49
2017-03-08T01:38:54.725Z,1013.48
2017-03-08T01:39:35.263Z,1013.5
2017-03-08T01:40:15.905Z,1013.47
2017-03-08T01:40:56.551Z,1013.47
2017-03-08T01:41:37.173Z,1013.44
2017-03-08T01:42:17.703Z,1013.42
2017-03-08T01:42:58.336Z,1013.42
2017-03-08T01:43:38.958Z,1013.41
2017-03-08T01:44:19.578Z,1013.43
2017-03-08T01:45:00.125Z,1013.43
2017-03-08T01:45:40.786Z,1013.45
2017-03-08T01:46:21.445Z,1013.42
2017-03-08T01:47:02.084Z,1013.44
2017-03-08T01:47:42.747Z,1013.42
2017-03-08T01:48:23.391Z,1013.42
2017-03-08T01:49:04.047Z,1013.42
2017-03-08T01:49:44.701Z,1013.43
2017-03-08T01:50:25.355Z,1013.43
2017-03-08T01:51:06.009Z,1013.45
2017-03-08T01:51:46.668Z,1013.44
2017-03-08T01:52:27.314Z,1013.49
2017-03-08T01:53:07.854Z,1013.51
2017-03-08T01:53:48.524Z,1013.53
2017-03-08T01:54:29.183Z,1013.57
2017-03-08T01:55:09.811Z,1013.6
2017-03-08T01:55:50.476Z,1013.58
2017-03-08T01:56:31.128Z,1013.61
2017-03-08T01:57:11.794Z,1013.65
2017-03-08T01:57:52.423Z,1013.61
2017-03-08T01:58:33.074Z,1013.64
2017-03-08T01:59:13.736Z,1013.64
2017-03-08T01:59:54.389Z,1013.62
2017-03-08T02:00:35.044Z,1013.67
2017-03-08T02:01:15.622Z,1013.7
2017-03-08T02:01:56.253Z,1013.72
2017-03-08T02:02:36.917Z,1013.74
2017-03-08T02:03:17.476Z,1013.73
2017-03-08T02:03:58.104Z,1013.75
2017-03-08T02:04:38.757Z,1013.68
2017-03-08T02:05:19.411Z,1013.69
2017-03-08T02:06:00.059Z,1013.62
2017-03-08T02:06:40.716Z,1013.59
2017-03-08T02:07:21.264Z,1013.57
2017-03-08T02:08:01.920Z,1013.59
2017-03-08T02:08:42.572Z,1013.56
2017-03-08T02:09:23.234Z,1013.59
2017-03-08T02:10:03.788Z,1013.59
2017-03-08T02:10:44.444Z,1013.63
2017-03-08T02:11:26.111Z,1013.62
2017-03-08T02:12:06.658Z,1013.65
2017-03-08T02:12:47.328Z,1013.65
2017-03-08T02:13:27.970Z,1013.63
2017-03-08T02:14:08.523Z,1013.64
2017-03-08T02:14:49.158Z,1013.63
2017-03-08T02:15:29.716Z,1013.62
2017-03-08T02:16:10.295Z,1013.67
2017-03-08T02:16:50.862Z,1013.64
2017-03-08T02:17:31.504Z,1013.64
2017-03-08T02:18:12.128Z,1013.64
2017-03-08T02:18:52.684Z,1013.64
2017-03-08T02:19:33.277Z,1013.62
2017-03-08T02:20:13.876Z,1013.61
2017-03-08T02:20:54.555Z,1013.58
2017-03-08T02:21:35.116Z,1013.55
2017-03-08T02:22:15.738Z,1013.47
2017-03-08T02:22:56.381Z,1013.48
2017-03-08T02:23:37.032Z,1013.46
2017-03-08T02:24:17.694Z,1013.43
2017-03-08T02:24:58.367Z,1013.45
2017-03-08T02:25:39.037Z,1013.42
2017-03-08T02:26:19.657Z,1013.44
2017-03-08T02:27:00.318Z,1013.4
2017-03-08T02:27:40.956Z,1013.41
2017-03-08T02:28:21.613Z,1013.39
2017-03-08T02:29:02.269Z,1013.39
2017-03-08T02:29:42.918Z,1013.38
2017-03-08T02:30:23.571Z,1013.36
2017-03-08T02:31:04.227Z,1013.4
2017-03-08T02:31:44.869Z,1013.36
2017-03-08T02:32:31.957Z,1013.39
2017-03-08T02:33:12.644Z,1013.43
2017-03-08T02:33:53.304Z,1013.4
2017-03-08T02:34:33.948Z,1013.41
2017-03-08T02:35:14.507Z,1013.37
2017-03-08T02:35:55.200Z,1013.37
2017-03-08T02:36:35.879Z,1013.39
2017-03-08T02:37:16.567Z,1013.39
2017-03-08T02:37:57.122Z,1013.36
2017-03-08T02:38:37.712Z,1013.39
2017-03-08T02:39:18.408Z,1013.37
2017-03-08T02:39:59.064Z,1013.36
2017-03-08T02:40:39.608Z,1013.34
2017-03-08T02:41:20.307Z,1013.35
2017-03-08T02:42:00.976Z,1013.36
2017-03-08T02:42:41.545Z,1013.31
2017-03-08T02:43:22.275Z,1013.34
2017-03-08T02:44:02.934Z,1013.3
2017-03-08T02:44:43.595Z,1013.32
2017-03-08T02:45:24.121Z,1013.27
2017-03-08T02:46:04.783Z,1013.25
2017-03-08T02:46:45.448Z,1013.25
2017-03-08T02:47:26.001Z,1013.25
2017-03-08T02:48:06.762Z,1013.24
2017-03-08T02:48:47.513Z,1013.23
2017-03-08T02:49:28.177Z,1013.2
2017-03-08T02:50:08.818Z,1013.17
2017-03-08T02:50:49.575Z,1013.16
2017-03-08T02:51:30.220Z,1013.18
2017-03-08T02:52:10.876Z,1013.17
2017-03-08T02:52:51.530Z,1013.2
2017-03-08T02:53:32.089Z,1013.15
2017-03-08T02:54:12.738Z,1013.23
2017-03-08T02:54:53.387Z,1013.22
2017-03-08T02:55:34.057Z,1013.2
2017-03-08T02:56:14.800Z,1013.18
2017-03-08T02:56:55.350Z,1013.17
2017-03-08T02:57:36.005Z,1013.19
2017-03-08T02:58:16.761Z,1013.16
2017-03-08T02:58:57.331Z,1013.14
2017-03-08T02:59:38.061Z,1013.15
2017-03-08T03:00:18.713Z,1013.11
2017-03-08T03:00:59.264Z,1013.09
2017-03-08T03:01:39.948Z,1013.11
2017-03-08T03:02:20.673Z,1013.1
2017-03-08T03:03:01.428Z,1013.08
2017-03-08T03:03:41.986Z,1013.12
2017-03-08T03:04:22.681Z,1013.12
2017-03-08T03:05:03.234Z,1013.09
2017-03-08T03:05:43.934Z,1013.08
2017-03-08T03:06:24.704Z,1013.09
2017-03-08T03:07:05.448Z,1013.08
2017-03-08T03:07:46.103Z,1013.1
2017-03-08T03:08:26.856Z,1013.08
2017-03-08T03:09:07.505Z,1013.11
2017-03-08T03:09:48.266Z,1013.12
2017-03-08T03:10:28.818Z,1013.11
2017-03-08T03:11:09.509Z,1013.07
2017-03-08T03:11:50.244Z,1013.05
2017-03-08T03:12:30.980Z,1013
2017-03-08T03:13:11.524Z,1012.98
2017-03-08T03:13:52.143Z,1013
2017-03-08T03:14:32.828Z,1012.94
2017-03-08T03:15:13.604Z,1012.96
2017-03-08T03:15:54.346Z,1012.89
2017-03-08T03:16:34.922Z,1012.93
2017-03-08T03:17:15.658Z,1012.9
2017-03-08T03:17:56.307Z,1012.87
2017-03-08T03:18:36.959Z,1012.85
2017-03-08T03:19:17.708Z,1012.89
2017-03-08T03:19:58.490Z,1012.85
2017-03-08T03:20:39.220Z,1012.87
2017-03-08T03:21:19.974Z,1012.88
2017-03-08T03:22:01.654Z,1012.9
2017-03-08T03:22:42.410Z,1012.88
2017-03-08T03:23:23.159Z,1012.87
2017-03-08T03:24:03.818Z,1012.82
2017-03-08T03:24:44.464Z,1012.77
2017-03-08T03:25:25.014Z,1012.8
2017-03-08T03:26:05.725Z,1012.73
2017-03-08T03:26:46.541Z,1012.77
2017-03-08T03:27:28.304Z,1012.77
2017-03-08T03:28:08.855Z,1012.76
2017-03-08T03:28:49.568Z,1012.76
2017-03-08T03:29:30.161Z,1012.72
2017-03-08T03:30:10.822Z,1012.71
2017-03-08T03:30:51.476Z,1012.71
2017-03-08T03:31:32.229Z,1012.7
2017-03-08T03:32:12.979Z,1012.67
2017-03-08T03:32:53.736Z,1012.73
2017-03-08T03:33:34.487Z,1012.75
2017-03-08T03:34:15.245Z,1012.73
2017-03-08T03:34:55.998Z,1012.71
2017-03-08T03:35:36.577Z,1012.66
2017-03-08T03:36:17.277Z,1012.68
2017-03-08T03:36:58.058Z,1012.72
2017-03-08T03:37:38.815Z,1012.68
2017-03-08T03:38:19.396Z,1012.67
2017-03-08T03:39:00.085Z,1012.67
2017-03-08T03:39:40.765Z,1012.74
2017-03-08T03:40:21.429Z,1012.71
2017-03-08T03:41:01.989Z,1012.68
2017-03-08T03:41:43.753Z,1012.67
2017-03-08T03:42:24.510Z,1012.67
2017-03-08T03:43:05.110Z,1012.64
2017-03-08T03:43:45.820Z,1012.62
2017-03-08T03:44:26.391Z,1012.68
2017-03-08T03:45:07.020Z,1012.61
2017-03-08T03:45:47.776Z,1012.59
2017-03-08T03:46:28.345Z,1012.64
2017-03-08T03:47:09.032Z,1012.66
2017-03-08T03:47:49.739Z,1012.66
2017-03-08T03:48:30.490Z,1012.7
2017-03-08T03:49:11.057Z,1012.72
2017-03-08T03:49:51.754Z,1012.73
2017-03-08T03:50:32.450Z,1012.71
2017-03-08T03:51:13.205Z,1012.74
2017-03-08T03:51:53.960Z,1012.73
2017-03-08T03:52:34.718Z,1012.68
2017-03-08T03:53:15.470Z,1012.73
2017-03-08T03:53:56.227Z,1012.71
2017-03-08T03:54:36.980Z,1012.74
2017-03-08T03:55:17.556Z,1012.73
2017-03-08T03:55:58.294Z,1012.72
2017-03-08T03:56:39.050Z,1012.7
2017-03-08T03:57:19.799Z,1012.7
2017-03-08T03:58:00.552Z,1012.76
2017-03-08T03:58:41.310Z,1012.67
2017-03-08T03:59:22.070Z,1012.68
2017-03-08T04:00:02.820Z,1012.64
2017-03-08T04:00:43.396Z,1012.68
2017-03-08T04:01:24.126Z,1012.66
2017-03-08T04:02:04.881Z,1012.63
2017-03-08T04:02:45.466Z,1012.57
2017-03-08T04:03:26.185Z,1012.55
2017-03-08T04:04:06.951Z,1012.53
2017-03-08T04:04:47.517Z,1012.53
2017-03-08T04:05:28.263Z,1012.52
2017-03-08T04:06:08.909Z,1012.48
2017-03-08T04:06:49.692Z,1012.53
2017-03-08T04:07:30.410Z,1012.51
2017-03-08T04:08:11.179Z,1012.51
2017-03-08T04:08:51.934Z,1012.53
2017-03-08T04:09:33.715Z,1012.53
2017-03-08T04:10:14.464Z,1012.51
2017-03-08T04:10:55.222Z,1012.49
2017-03-08T04:11:35.973Z,1012.5
2017-03-08T04:12:16.731Z,1012.47
2017-03-08T04:12:57.385Z,1012.5
2017-03-08T04:13:38.031Z,1012.49
2017-03-08T04:14:18.787Z,1012.47
2017-03-08T04:14:59.544Z,1012.49
2017-03-08T04:15:40.305Z,1012.45
2017-03-08T04:16:21.060Z,1012.44
2017-03-08T04:17:01.711Z,1012.4
2017-03-08T04:17:42.366Z,1012.41
2017-03-08T04:18:23.020Z,1012.4
2017-03-08T04:19:03.673Z,1012.33
2017-03-08T04:19:44.323Z,1012.32
2017-03-08T04:20:24.900Z,1012.3
2017-03-08T04:21:05.580Z,1012.3
2017-03-08T04:21:46.181Z,1012.27
2017-03-08T04:22:26.835Z,1012.26
2017-03-08T04:23:07.402Z,1012.23
2017-03-08T04:23:47.985Z,1012.24
2017-03-08T04:24:28.591Z,1012.21
2017-03-08T04:25:09.239Z,1012.17
2017-03-08T04:25:49.806Z,1012.19
2017-03-08T04:26:30.383Z,1012.18
2017-03-08T04:27:12.027Z,1012.16
2017-03-08T04:27:52.667Z,1012.19
2017-03-08T04:28:33.227Z,1012.18
2017-03-08T04:29:13.831Z,1012.23
2017-03-08T04:29:54.433Z,1012.19
2017-03-08T04:30:35.072Z,1012.18
2017-03-08T04:31:15.686Z,1012.22
2017-03-08T04:31:56.331Z,1012.19
2017-03-08T04:32:36.934Z,1012.23
2017-03-08T04:33:17.587Z,1012.22
2017-03-08T04:33:58.139Z,1012.19
2017-03-08T04:34:38.724Z,1012.19
2017-03-08T04:35:19.340Z,1012.17
2017-03-08T04:35:59.997Z,1012.15
2017-03-08T04:36:40.651Z,1012.19
2017-03-08T04:37:21.301Z,1012.21
2017-03-08T04:38:02.977Z,1012.18
2017-03-08T04:38:43.625Z,1012.23
2017-03-08T04:39:24.284Z,1012.2
2017-03-08T04:40:04.939Z,1012.22
2017-03-08T04:40:45.505Z,1012.21
2017-03-08T04:41:26.076Z,1012.26
2017-03-08T04:42:06.681Z,1012.23
2017-03-08T04:42:47.342Z,1012.22
2017-03-08T04:43:27.882Z,1012.23
2017-03-08T04:44:08.598Z,1012.26
2017-03-08T04:44:49.196Z,1012.28
2017-03-08T04:45:29.852Z,1012.27
2017-03-08T04:46:10.407Z,1012.22
2017-03-08T04:46:52.029Z,1012.2
2017-03-08T04:47:32.624Z,1012.18
2017-03-08T04:48:13.279Z,1012.18
2017-03-08T04:48:53.829Z,1012.16
2017-03-08T04:49:34.396Z,1012.17
2017-03-08T04:50:15.039Z,1012.15
2017-03-08T04:50:56.715Z,1012.14
2017-03-08T04:51:37.367Z,1012.16
2017-03-08T04:52:18.019Z,1012.15
2017-03-08T04:52:58.671Z,1012.13
2017-03-08T04:53:39.321Z,1012.14
2017-03-08T04:54:19.983Z,1012.11
2017-03-08T04:55:01.656Z,1012.14
2017-03-08T04:55:42.239Z,1012.15
2017-03-08T04:56:22.927Z,1012.15
2017-03-08T04:57:03.508Z,1012.2
2017-03-08T04:57:44.167Z,1012.11
2017-03-08T04:58:24.722Z,1012.14
2017-03-08T04:59:05.316Z,1012.14
2017-03-08T04:59:45.914Z,1012.16
2017-03-08T05:00:26.570Z,1012.15
2017-03-08T05:01:07.223Z,1012.14
2017-03-08T05:01:47.874Z,1012.14
2017-03-08T05:02:28.525Z,1012.1
2017-03-08T05:03:09.187Z,1012.12
2017-03-08T05:03:49.837Z,1012.12
2017-03-08T05:04:30.492Z,1012.13
2017-03-08T05:05:11.060Z,1012.1
2017-03-08T05:05:51.643Z,1012.14
2017-03-08T05:06:32.310Z,1012.11
2017-03-08T05:07:12.949Z,1012.09
2017-03-08T05:07:53.613Z,1012.08
2017-03-08T05:08:34.250Z,1012.09
2017-03-08T05:09:14.907Z,1012.08
2017-03-08T05:09:55.559Z,1012.12
2017-03-08T05:10:36.217Z,1012.07
2017-03-08T05:11:16.824Z,1012.12
2017-03-08T05:11:57.472Z,1012.14
2017-03-08T05:12:38.060Z,1012.21
2017-03-08T05:13:18.722Z,1012.2
2017-03-08T05:13:59.319Z,1012.25
2017-03-08T05:14:41.006Z,1012.27
2017-03-08T05:15:21.564Z,1012.24
2017-03-08T05:16:02.206Z,1012.28
2017-03-08T05:16:42.773Z,1012.26
2017-03-08T05:17:23.405Z,1012.28
2017-03-08T05:18:04.074Z,1012.28
2017-03-08T05:18:44.734Z,1012.27
2017-03-08T05:19:25.379Z,1012.24
2017-03-08T05:20:06.026Z,1012.23
2017-03-08T05:20:46.674Z,1012.24
2017-03-08T05:21:27.248Z,1012.21
2017-03-08T05:22:07.826Z,1012.21
2017-03-08T05:22:48.435Z,1012.18
2017-03-08T05:23:29.084Z,1012.18
2017-03-08T05:24:09.643Z,1012.16
2017-03-08T05:24:50.232Z,1012.13
2017-03-08T05:25:30.840Z,1012.11
2017-03-08T05:26:11.412Z,1012.08
2017-03-08T05:26:52.091Z,1012
2017-03-08T05:27:33.720Z,1012.02
2017-03-08T05:28:14.369Z,1012.06
2017-03-08T05:28:54.937Z,1012.05
2017-03-08T05:29:35.521Z,1012.04
2017-03-08T05:30:17.150Z,1011.99
2017-03-08T05:30:57.794Z,1012.01
2017-03-08T05:31:38.453Z,1012
2017-03-08T05:32:19.109Z,1012.02
2017-03-08T05:32:59.759Z,1012.1
2017-03-08T05:33:40.409Z,1012.07
2017-03-08T05:34:21.068Z,1012.08
2017-03-08T05:35:01.715Z,1012.1
2017-03-08T05:35:42.374Z,1012.05
2017-03-08T05:36:23.026Z,1012.06
2017-03-08T05:37:03.672Z,1012.09
2017-03-08T05:37:44.237Z,1012.04
2017-03-08T05:38:24.883Z,1012.08
2017-03-08T05:39:05.526Z,1012.04
2017-03-08T05:39:46.186Z,1012.02
2017-03-08T05:40:26.835Z,1012.05
2017-03-08T05:41:07.499Z,1012.05
2017-03-08T05:41:48.393Z,1012.06
2017-03-08T05:42:29.005Z,1012.07
2017-03-08T05:43:09.654Z,1012.09
2017-03-08T05:43:50.230Z,1012.11
2017-03-08T05:44:30.807Z,1012.07
2017-03-08T05:45:11.392Z,1012.15
2017-03-08T05:45:52.061Z,1012.18
2017-03-08T05:46:32.641Z,1012.2
2017-03-08T05:47:13.269Z,1012.18
2017-03-08T05:47:53.922Z,1012.24
2017-03-08T05:48:34.491Z,1012.23
2017-03-08T05:49:15.123Z,1012.24
2017-03-08T05:49:55.778Z,1012.21
2017-03-08T05:50:36.338Z,1012.23
2017-03-08T05:51:16.899Z,1012.27
2017-03-08T05:51:57.530Z,1012.28
2017-03-08T05:52:38.083Z,1012.26
2017-03-08T05:53:18.684Z,1012.23
2017-03-08T05:53:59.287Z,1012.27
2017-03-08T05:54:39.858Z,1012.27
2017-03-08T05:55:20.491Z,1012.3
2017-03-08T05:56:02.164Z,1012.24
2017-03-08T05:56:42.719Z,1012.19
2017-03-08T05:57:23.334Z,1012.25
2017-03-08T05:58:04.019Z,1012.24
2017-03-08T05:58:44.592Z,1012.2
2017-03-08T05:59:25.214Z,1012.21
2017-03-08T06:00:05.885Z,1012.18
2017-03-08T06:00:46.535Z,1012.2
2017-03-08T06:01:27.102Z,1012.18
2017-03-08T06:02:07.683Z,1012.16
2017-03-08T06:02:48.301Z,1012.15
2017-03-08T06:03:28.939Z,1012.09
2017-03-08T06:04:09.506Z,1012.06
2017-03-08T06:04:50.123Z,1012.05
2017-03-08T06:05:30.798Z,1012.06
2017-03-08T06:06:11.448Z,1012.04
2017-03-08T06:06:52.099Z,1012.06
2017-03-08T06:07:32.753Z,1011.99
2017-03-08T06:08:13.408Z,1012.06
2017-03-08T06:08:54.057Z,1012.02
2017-03-08T06:09:34.709Z,1012.12
2017-03-08T06:10:15.364Z,1012.06
2017-03-08T06:10:55.933Z,1012.08
2017-03-08T06:11:36.551Z,1012.04
2017-03-08T06:12:17.221Z,1012.07
2017-03-08T06:12:57.785Z,1012.05
2017-03-08T06:13:38.424Z,1012.05
2017-03-08T06:14:18.991Z,1012.06
2017-03-08T06:14:59.625Z,1012
2017-03-08T06:15:40.284Z,1011.95
2017-03-08T06:16:20.933Z,1011.96
2017-03-08T06:17:01.584Z,1011.93
2017-03-08T06:17:42.238Z,1011.92
2017-03-08T06:18:22.892Z,1011.9
2017-03-08T06:19:03.558Z,1011.95
2017-03-08T06:19:44.221Z,1011.91
2017-03-08T06:20:24.849Z,1011.91
2017-03-08T06:21:05.427Z,1011.96
2017-03-08T06:21:46.055Z,1012.01
2017-03-08T06:22:26.738Z,1011.99
2017-03-08T06:23:07.257Z,1011.99
2017-03-08T06:23:47.911Z,1012.02
2017-03-08T06:24:28.564Z,1012.03
2017-03-08T06:25:09.121Z,1012.03
2017-03-08T06:25:49.763Z,1012.02
2017-03-08T06:26:30.417Z,1011.99
2017-03-08T06:27:10.977Z,1011.98
2017-03-08T06:27:51.523Z,1012.01
2017-03-08T06:28:32.134Z,1012.02
2017-03-08T06:29:12.729Z,1012.01
2017-03-08T06:29:53.297Z,1012
2017-03-08T06:30:33.848Z,1012
2017-03-08T06:31:14.479Z,1011.99
2017-03-08T06:31:55.050Z,1011.95
2017-03-08T06:32:35.685Z,1011.92
2017-03-08T06:33:16.339Z,1011.92
2017-03-08T06:33:56.884Z,1011.86
2017-03-08T06:34:37.576Z,1011.84
2017-03-08T06:35:18.195Z,1011.79
2017-03-08T06:35:58.746Z,1011.77
2017-03-08T06:36:39.382Z,1011.76
2017-03-08T06:37:20.045Z,1011.75
2017-03-08T06:38:00.617Z,1011.71
2017-03-08T06:38:41.192Z,1011.74
2017-03-08T06:39:21.822Z,1011.72
2017-03-08T06:40:02.453Z,1011.7
2017-03-08T06:40:43.048Z,1011.7
2017-03-08T06:41:23.655Z,1011.66
2017-03-08T06:42:04.319Z,1011.64
2017-03-08T06:42:44.906Z,1011.65
2017-03-08T06:43:25.508Z,1011.7
2017-03-08T06:44:06.171Z,1011.71
2017-03-08T06:44:46.732Z,1011.7
2017-03-08T06:45:27.366Z,1011.66
2017-03-08T06:46:08.035Z,1011.66
2017-03-08T06:46:48.681Z,1011.59
2017-03-08T06:47:29.338Z,1011.61
2017-03-08T06:48:09.983Z,1011.59
2017-03-08T06:48:50.526Z,1011.55
2017-03-08T06:49:31.206Z,1011.52
2017-03-08T06:50:11.846Z,1011.54
2017-03-08T06:50:52.489Z,1011.53
2017-03-08T06:51:33.143Z,1011.51
2017-03-08T06:52:13.809Z,1011.5
2017-03-08T06:52:54.452Z,1011.47
2017-03-08T06:53:35.156Z,1011.42
2017-03-08T06:54:15.766Z,1011.41
2017-03-08T06:54:56.415Z,1011.37
2017-03-08T06:55:36.969Z,1011.33
2017-03-08T06:56:17.545Z,1011.34
2017-03-08T06:56:58.169Z,1011.32
2017-03-08T06:57:38.752Z,1011.31
2017-03-08T06:58:20.345Z,1011.3
2017-03-08T06:59:00.939Z,1011.29
2017-03-08T06:59:41.599Z,1011.31
2017-03-08T07:00:22.188Z,1011.34
2017-03-08T07:01:02.710Z,1011.33
2017-03-08T07:01:43.289Z,1011.32
2017-03-08T07:02:24.930Z,1011.29
2017-03-08T07:03:05.491Z,1011.23
2017-03-08T07:03:46.146Z,1011.23
2017-03-08T07:04:26.798Z,1011.2
2017-03-08T07:05:07.383Z,1011.2
2017-03-08T07:05:48.123Z,1011.17
2017-03-08T07:06:28.753Z,1011.2
2017-03-08T07:07:09.399Z,1011.2
2017-03-08T07:07:51.083Z,1011.19
2017-03-08T07:08:31.752Z,1011.2
2017-03-08T07:09:12.490Z,1011.17
2017-03-08T07:09:53.258Z,1011.21
2017-03-08T07:10:33.910Z,1011.17
2017-03-08T07:11:14.560Z,1011.19
2017-03-08T07:11:55.340Z,1011.2
2017-03-08T07:12:36.081Z,1011.15
2017-03-08T07:13:16.713Z,1011.11
2017-03-08T07:13:57.362Z,1011.13
2017-03-08T07:14:39.061Z,1011.12
2017-03-08T07:15:19.715Z,1011.08
2017-03-08T07:16:00.338Z,1011.11
2017-03-08T07:16:40.956Z,1011.11
2017-03-08T07:17:21.656Z,1011.07
2017-03-08T07:18:02.204Z,1011.08
2017-03-08T07:18:42.839Z,1011.09
2017-03-08T07:19:23.503Z,1011.14
2017-03-08T07:20:04.078Z,1011.13
2017-03-08T07:20:44.709Z,1011.1
2017-03-08T07:21:25.365Z,1011.04
2017-03-08T07:22:06.033Z,1011.05
2017-03-08T07:22:46.570Z,1011.02
2017-03-08T07:23:27.223Z,1011.01
2017-03-08T07:24:07.874Z,1011.04
2017-03-08T07:24:48.419Z,1011.07
2017-03-08T07:25:29.010Z,1011.1
2017-03-08T07:26:09.628Z,1011.1
2017-03-08T07:26:50.287Z,1011.11
2017-03-08T07:27:30.851Z,1011.11
2017-03-08T07:28:11.426Z,1011.1
2017-03-08T07:28:53.041Z,1011.08
2017-03-08T07:29:33.602Z,1011.05
2017-03-08T07:30:14.185Z,1011.06
2017-03-08T07:30:54.812Z,1011.06
2017-03-08T07:31:35.449Z,1011.06
2017-03-08T07:32:16.128Z,1011.03
2017-03-08T07:32:56.776Z,1011.06
2017-03-08T07:33:37.424Z,1011.05
2017-03-08T07:34:18.243Z,1011.05
2017-03-08T07:34:58.861Z,1011.07
2017-03-08T07:35:39.488Z,1011.05
2017-03-08T07:36:20.131Z,1011.05
2017-03-08T07:37:00.716Z,1011.04
2017-03-08T07:37:41.334Z,1011.09
2017-03-08T07:38:22.915Z,1011.09
2017-03-08T07:39:03.463Z,1011.05
2017-03-08T07:39:44.112Z,1011.02
2017-03-08T07:40:24.775Z,1011.04
2017-03-08T07:41:05.320Z,1011.02
2017-03-08T07:41:45.969Z,1011.04
2017-03-08T07:42:26.618Z,1011.04
2017-03-08T07:43:07.265Z,1011.04
2017-03-08T07:43:47.914Z,1011.05
2017-03-08T07:44:28.592Z,1011.02
2017-03-08T07:45:09.136Z,1011.02
2017-03-08T07:45:49.768Z,1011.03
2017-03-08T07:46:30.427Z,1011.03
2017-03-08T07:47:10.983Z,1011.01
2017-03-08T07:47:51.644Z,1011.05
2017-03-08T07:48:32.290Z,1011.05
2017-03-08T07:49:12.973Z,1011.07
2017-03-08T07:49:53.624Z,1011.04
2017-03-08T07:50:34.280Z,1011.09
2017-03-08T07:51:14.910Z,1011.03
2017-03-08T07:51:55.570Z,1011.01
2017-03-08T07:52:36.214Z,1011.04
2017-03-08T07:53:16.871Z,1011.11
2017-03-08T07:53:57.524Z,1011.09
2017-03-08T07:54:38.176Z,1011.11
2017-03-08T07:55:18.929Z,1011.12
2017-03-08T07:55:59.582Z,1011.11
2017-03-08T07:56:40.238Z,1011.11
2017-03-08T07:57:20.804Z,1011.06
2017-03-08T07:58:01.442Z,1011.07
2017-03-08T07:58:42.109Z,1011.06
2017-03-08T07:59:22.655Z,1011
2017-03-08T08:00:03.301Z,1011.03
2017-03-08T08:00:43.843Z,1011.06
2017-03-08T08:01:24.449Z,1011.04
2017-03-08T08:02:05.045Z,1011.01
2017-03-08T08:02:45.606Z,1010.97
2017-03-08T08:03:26.250Z,1010.96
2017-03-08T08:04:06.816Z,1010.93
2017-03-08T08:04:47.392Z,1010.94
2017-03-08T08:05:28.001Z,1010.93
2017-03-08T08:06:08.684Z,1010.92
2017-03-08T08:06:49.323Z,1010.91
2017-03-08T08:07:29.963Z,1010.89
2017-03-08T08:08:10.625Z,1010.92
2017-03-08T08:08:51.273Z,1010.88
2017-03-08T08:09:31.835Z,1010.92
2017-03-08T08:10:13.503Z,1010.9
2017-03-08T08:10:54.139Z,1010.89
2017-03-08T08:11:34.873Z,1010.91
2017-03-08T08:12:15.511Z,1010.87
2017-03-08T08:12:56.223Z,1010.87
2017-03-08T08:13:36.832Z,1010.92
2017-03-08T08:14:22.251Z,1010.83
2017-03-08T08:15:02.916Z,1010.87